Time;durP1;ratioP1;P1;durP2;ratioP2;P2;SDS_P1;SDS_P2;PMS_P1;PMS_P2;Temp;Humidity;BMP_temperature;BMP_pressure;BME280_temperature;BME280_humidity;BME280_pressure;Samples;Min_cycle;Max_cycle;Signal;HPM_P1;HPM_P2
2021/01/01 00:00:31;;;;;;;26.70;18.80;;;4.40;99.90;;;;;;5075826;28;20180;-68
2021/01/01 00:03:00;;;;;;;27.07;18.70;;;4.50;99.90;;;;;;5074539;28;20178;-67
2021/01/01 00:05:27;;;;;;;32.08;22.27;;;4.60;99.90;;;;;;5075707;28;20195;-68
2021/01/01 00:07:53;;;;;;;27.60;21.70;;;4.70;1.00;;;;;;5075618;28;20172;-68
2021/01/01 00:10:19;;;;;;;30.52;21.88;;;4.50;1.00;;;;;;5075285;28;20188;-67
2021/01/01 00:12:44;;;;;;;36.73;18.00;;;4.60;1.00;;;;;;5075461;28;20265;-68
2021/01/01 00:15:11;;;;;;;21.37;15.87;;;4.90;1.00;;;;;;5075588;28;20172;-68
2021/01/01 00:17:36;;;;;;;20.60;15.20;;;5.00;99.90;;;;;;5075563;28;20164;-68
2021/01/01 00:20:09;;;;;;;26.10;16.47;;;5.10;99.90;;;;;;5075604;28;20533;-68
2021/01/01 00:22:35;;;;;;;18.95;15.30;;;5.00;99.90;;;;;;5075870;28;20156;-68
2021/01/01 00:25:01;;;;;;;21.20;15.70;;;5.00;99.90;;;;;;5075544;28;20259;-68
2021/01/01 00:27:30;;;;;;;20.73;16.00;;;5.10;99.90;;;;;;5075442;28;20588;-68
2021/01/01 00:29:56;;;;;;;22.73;16.17;;;5.10;99.90;;;;;;5075287;28;20426;-68
2021/01/01 00:32:22;;;;;;;26.98;18.80;;;5.00;99.90;;;;;;5075605;28;20200;-68
2021/01/01 00:34:48;;;;;;;30.57;21.47;;;4.70;99.90;;;;;;5075315;28;20179;-67
2021/01/01 00:37:14;;;;;;;26.48;19.45;;;4.50;1.00;;;;;;5075227;28;20168;-68
2021/01/01 00:39:39;;;;;;;28.37;19.53;;;4.40;1.00;;;;;;5075182;28;20184;-67
2021/01/01 00:42:05;;;;;;;31.20;19.73;;;4.40;1.00;;;;;;5075156;28;20218;-68
2021/01/01 00:44:31;;;;;;;26.67;18.70;;;4.60;1.00;;;;;;5075467;28;20179;-68
2021/01/01 00:46:57;;;;;;;21.33;16.10;;;4.60;13.30;;;;;;5075480;28;20544;-68
2021/01/01 00:49:23;;;;;;;21.50;15.45;;;4.60;1.00;;;;;;5074974;28;20210;-67
2021/01/01 00:51:48;;;;;;;21.17;16.73;;;4.40;1.00;;;;;;5075047;28;20279;-67
2021/01/01 00:54:14;;;;;;;23.50;16.80;;;4.60;13.00;;;;;;5074843;28;20373;-68
2021/01/01 00:56:40;;;;;;;25.73;17.20;;;4.70;1.00;;;;;;5074789;28;20171;-67
2021/01/01 00:59:05;;;;;;;26.43;17.07;;;4.50;1.00;;;;;;5074977;28;20192;-68
2021/01/01 01:01:31;;;;;;;24.53;18.50;;;4.60;1.00;;;;;;5074969;28;20402;-67
2021/01/01 01:03:57;;;;;;;23.07;17.87;;;4.40;1.00;;;;;;5074680;28;20164;-67
2021/01/01 01:06:27;;;;;;;23.98;17.00;;;4.30;23.80;;;;;;5074525;28;20247;-68
2021/01/01 01:08:53;;;;;;;22.33;16.80;;;4.50;99.90;;;;;;5074694;28;20196;-68
2021/01/01 01:11:30;;;;;;;30.15;19.45;;;4.50;1.00;;;;;;5073963;28;20164;-68
2021/01/01 01:13:57;;;;;;;24.15;18.27;;;4.60;1.00;;;;;;5074281;28;20630;-68
2021/01/01 01:16:24;;;;;;;24.42;17.35;;;4.30;2.50;;;;;;5074513;28;20513;-68
2021/01/01 01:18:50;;;;;;;23.65;16.10;;;4.50;1.00;;;;;;5074483;28;20192;-68
2021/01/01 01:21:15;;;;;;;21.47;18.00;;;4.40;1.00;;;;;;5074318;28;20175;-67
2021/01/01 01:23:41;;;;;;;22.47;17.17;;;4.60;1.00;;;;;;5074293;28;20392;-67
2021/01/01 01:26:07;;;;;;;24.53;17.60;;;4.40;1.00;;;;;;5072843;28;20385;-67
2021/01/01 01:28:32;;;;;;;25.90;16.73;;;4.20;1.00;;;;;;5074059;28;20171;-67
2021/01/01 01:30:58;;;;;;;24.60;17.00;;;4.40;65.10;;;;;;5074226;28;20168;-67
2021/01/01 01:33:23;;;;;;;24.67;16.50;;;4.60;1.00;;;;;;5074045;28;20188;-67
2021/01/01 01:35:49;;;;;;;26.87;18.60;;;4.60;1.00;;;;;;5072800;28;20682;-67
2021/01/01 01:38:14;;;;;;;25.70;16.80;;;4.60;1.00;;;;;;5073851;28;20168;-67
2021/01/01 01:40:40;;;;;;;25.40;17.40;;;4.70;1.00;;;;;;5073949;28;20168;-67
2021/01/01 01:43:05;;;;;;;24.63;18.60;;;4.60;1.00;;;;;;5073837;28;20177;-66
2021/01/01 01:45:31;;;;;;;32.90;19.30;;;4.70;1.00;;;;;;5073877;28;20199;-68
2021/01/01 01:47:59;;;;;;;30.73;18.70;;;4.40;1.00;;;;;;5073831;28;20668;-68
2021/01/01 01:50:25;;;;;;;24.27;18.05;;;4.20;1.00;;;;;;5073611;28;20200;-68
2021/01/01 01:52:51;;;;;;;26.40;19.88;;;4.20;15.90;;;;;;5073852;28;20280;-68
2021/01/01 01:55:17;;;;;;;30.25;18.17;;;4.20;99.90;;;;;;5073918;28;20171;-67
2021/01/01 01:57:44;;;;;;;26.98;20.10;;;4.20;99.90;;;;;;5073605;28;20171;-68
2021/01/01 02:02:55;;;;;;;24.60;18.30;;;4.40;1.00;;;;;;5073892;28;20234;-68
2021/01/01 02:05:21;;;;;;;27.35;18.20;;;4.20;99.90;;;;;;5073711;28;20647;-68
2021/01/01 02:07:47;;;;;;;27.47;18.70;;;4.20;1.00;;;;;;5073718;28;20172;-68
2021/01/01 02:10:13;;;;;;;28.65;19.52;;;4.40;99.90;;;;;;5073286;28;20191;-68
2021/01/01 02:12:40;;;;;;;27.50;17.60;;;4.60;9.30;;;;;;5073276;28;20628;-68
2021/01/01 02:15:06;;;;;;;27.50;19.95;;;4.40;1.00;;;;;;5073474;28;20171;-68
2021/01/01 02:17:32;;;;;;;27.67;19.17;;;4.60;1.00;;;;;;5073485;28;20195;-68
2021/01/01 02:20:11;;;;;;;30.83;21.67;;;4.40;1.00;;;;;;5073201;28;20676;-68
2021/01/01 02:22:38;;;;;;;62.90;38.47;;;4.20;1.00;;;;;;5073084;28;20593;-68
2021/01/01 02:25:05;;;;;;;42.33;26.65;;;4.10;16.60;;;;;;5073148;28;20217;-68
2021/01/01 02:27:31;;;;;;;31.48;22.08;;;4.20;99.90;;;;;;5073416;28;20199;-67
2021/01/01 02:29:57;;;;;;;35.03;22.37;;;4.20;99.90;;;;;;5073097;28;20672;-67
2021/01/01 02:32:22;;;;;;;36.70;23.90;;;4.20;99.90;;;;;;5073081;28;20200;-67
2021/01/01 02:34:48;;;;;;;38.60;25.93;;;4.20;99.90;;;;;;5072878;28;20175;-67
2021/01/01 02:37:13;;;;;;;38.03;23.77;;;4.40;99.90;;;;;;5073261;28;20281;-67
2021/01/01 02:39:39;;;;;;;39.93;24.00;;;4.70;99.90;;;;;;5072876;28;20203;-67
2021/01/01 02:42:05;;;;;;;44.45;26.17;;;5.10;1.00;;;;;;5072818;28;20196;-67
2021/01/01 02:44:31;;;;;;;40.30;25.93;;;4.70;1.00;;;;;;5072860;28;20257;-66
2021/01/01 02:47:04;;;;;;;40.90;26.87;;;4.60;99.90;;;;;;5071535;28;20172;-68
2021/01/01 02:49:30;;;;;;;40.47;27.40;;;4.80;1.00;;;;;;5072714;28;20276;-66
2021/01/01 02:51:56;;;;;;;45.53;28.83;;;4.80;1.00;;;;;;5073041;28;20204;-67
2021/01/01 02:54:21;;;;;;;41.30;29.17;;;4.90;1.00;;;;;;5073112;28;20191;-68
2021/01/01 02:56:47;;;;;;;48.97;27.80;;;4.40;1.00;;;;;;5072959;28;20190;-67
2021/01/01 02:59:13;;;;;;;43.10;28.43;;;4.50;99.90;;;;;;5072801;28;20202;-68
2021/01/01 03:01:38;;;;;;;49.17;31.47;;;4.30;1.00;;;;;;5072642;28;20172;-67
2021/01/01 03:04:04;;;;;;;50.43;31.00;;;4.10;1.00;;;;;;5072682;28;20203;-67
2021/01/01 03:06:30;;;;;;;50.70;31.30;;;4.30;99.90;;;;;;5072743;28;20198;-67
2021/01/01 03:08:55;;;;;;;48.67;31.07;;;4.60;99.90;;;;;;5072573;28;20454;-68
2021/01/01 03:11:21;;;;;;;49.03;31.47;;;4.30;99.90;;;;;;5072791;28;20178;-68
2021/01/01 03:13:47;;;;;;;52.97;33.10;;;4.30;1.00;;;;;;5072757;28;20198;-69
2021/01/01 03:16:12;;;;;;;52.77;30.63;;;4.40;1.00;;;;;;5072601;28;20636;-68
2021/01/01 03:18:38;;;;;;;48.93;29.70;;;4.30;99.90;;;;;;5072568;28;20189;-68
2021/01/01 03:21:04;;;;;;;42.83;29.40;;;4.20;1.00;;;;;;5072633;28;20555;-67
2021/01/01 03:23:30;;;;;;;42.40;27.73;;;4.50;99.90;;;;;;5072536;28;20194;-68
2021/01/01 03:25:55;;;;;;;48.28;29.92;;;4.70;11.40;;;;;;5072729;28;20778;-68
2021/01/01 03:28:21;;;;;;;39.33;24.30;;;4.80;1.00;;;;;;5072466;28;20251;-68
2021/01/01 03:30:47;;;;;;;40.13;25.60;;;5.00;1.00;;;;;;5072477;28;20549;-68
2021/01/01 03:33:12;;;;;;;47.80;27.40;;;4.60;99.90;;;;;;5073539;28;20203;-68
2021/01/01 03:35:38;;;;;;;39.40;24.03;;;4.30;1.00;;;;;;5076433;28;20643;-68
2021/01/01 03:38:03;;;;;;;41.53;26.03;;;4.10;99.90;;;;;;5076658;28;20183;-67
2021/01/01 03:40:29;;;;;;;41.40;24.80;;;4.10;99.90;;;;;;5076530;28;20255;-67
2021/01/01 03:42:54;;;;;;;42.83;24.73;;;4.10;1.00;;;;;;5076273;28;20180;-68
2021/01/01 03:45:20;;;;;;;40.17;23.40;;;4.60;67.20;;;;;;5076276;28;20229;-68
2021/01/01 03:47:46;;;;;;;45.80;26.30;;;4.40;1.00;;;;;;5076295;28;20540;-67
2021/01/01 03:50:12;;;;;;;37.17;22.67;;;4.30;11.90;;;;;;5076210;28;20208;-68
2021/01/01 03:52:37;;;;;;;38.23;23.30;;;4.60;1.00;;;;;;5076332;28;20207;-68
2021/01/01 03:55:03;;;;;;;36.37;24.33;;;4.60;1.00;;;;;;5076134;28;20492;-67
2021/01/01 03:57:29;;;;;;;35.30;22.60;;;4.30;1.00;;;;;;5076002;28;20168;-67
2021/01/01 03:59:54;;;;;;;35.20;24.53;;;4.40;99.90;;;;;;5075948;28;20278;-67
2021/01/01 04:02:20;;;;;;;34.50;21.27;;;4.40;83.60;;;;;;5076009;28;20183;-67
2021/01/01 04:04:45;;;;;;;34.83;21.70;;;4.60;1.00;;;;;;5075855;28;20191;-67
2021/01/01 04:07:11;;;;;;;33.77;23.20;;;4.60;1.00;;;;;;5075762;28;20250;-67
2021/01/01 04:09:36;;;;;;;34.67;21.40;;;4.30;1.00;;;;;;5075824;28;20269;-67
2021/01/01 04:12:02;;;;;;;35.60;21.60;;;4.50;27.00;;;;;;5075745;28;20200;-67
2021/01/01 04:14:28;;;;;;;37.17;22.87;;;4.70;1.00;;;;;;5075530;28;20168;-67
2021/01/01 04:16:53;;;;;;;34.53;22.10;;;4.80;1.00;;;;;;5075568;28;20779;-68
2021/01/01 04:19:19;;;;;;;34.50;23.27;;;4.80;99.90;;;;;;5075286;28;20579;-67
2021/01/01 04:21:48;;;;;;;36.73;23.00;;;4.90;99.90;;;;;;5075694;28;20176;-67
2021/01/01 04:24:14;;;;;;;39.55;22.80;;;4.90;99.90;;;;;;5075445;28;20641;-67
2021/01/01 04:26:40;;;;;;;39.28;23.00;;;4.80;1.00;;;;;;5075696;28;20222;-69
2021/01/01 04:29:06;;;;;;;36.43;22.20;;;5.00;99.90;;;;;;5075504;28;20672;-68
2021/01/01 04:31:36;;;;;;;35.27;23.10;;;4.90;99.90;;;;;;5075535;28;20587;-69
2021/01/01 04:34:02;;;;;;;35.85;23.75;;;4.90;1.00;;;;;;5075524;28;20168;-69
2021/01/01 04:36:28;;;;;;;34.60;22.83;;;5.00;99.90;;;;;;5075073;28;20591;-66
2021/01/01 04:38:54;;;;;;;36.23;23.50;;;4.90;99.90;;;;;;5075061;28;20184;-67
2021/01/01 04:41:20;;;;;;;42.70;24.40;;;4.80;99.90;;;;;;5075384;28;20255;-67
2021/01/01 04:43:53;;;;;;;33.60;22.60;;;4.80;1.00;;;;;;5074727;28;20172;-67
2021/01/01 04:46:19;;;;;;;36.63;23.88;;;4.50;1.00;;;;;;5074809;28;20156;-66
2021/01/01 04:48:46;;;;;;;37.17;24.90;;;4.60;1.00;;;;;;5074606;28;20276;-69
2021/01/01 04:51:12;;;;;;;39.70;25.02;;;4.70;1.00;;;;;;5074788;28;20402;-66
2021/01/01 04:53:39;;;;;;;35.20;22.08;;;4.70;1.00;;;;;;5074642;28;20188;-65
2021/01/01 04:56:06;;;;;;;37.42;24.92;;;4.70;1.00;;;;;;5073412;28;20668;-67
2021/01/01 04:58:32;;;;;;;43.15;25.65;;;4.70;1.00;;;;;;5074531;28;20176;-67
2021/01/01 05:00:57;;;;;;;44.13;27.42;;;4.40;1.00;;;;;;5074529;28;20172;-66
2021/01/01 05:03:23;;;;;;;43.00;25.77;;;4.30;58.50;;;;;;5074733;28;20164;-67
2021/01/01 05:05:49;;;;;;;40.20;24.50;;;4.40;99.90;;;;;;5074548;28;20529;-67
2021/01/01 05:08:16;;;;;;;42.08;25.73;;;4.70;99.90;;;;;;5074393;28;20175;-67
2021/01/01 05:10:42;;;;;;;41.80;24.90;;;4.70;1.00;;;;;;5074666;28;20172;-66
2021/01/01 05:13:13;;;;;;;43.38;27.42;;;4.60;1.00;;;;;;5074612;28;20261;-67
2021/01/01 05:15:39;;;;;;;45.03;26.48;;;4.40;58.00;;;;;;5074551;28;20187;-67
2021/01/01 05:18:24;;;;;;;49.67;29.30;;;4.50;1.00;;;;;;5074289;28;20581;-67
2021/01/01 05:20:55;;;;;;;49.75;28.80;;;4.30;99.90;;;;;;5074208;28;20180;-67
2021/01/01 05:23:28;;;;;;;49.67;30.30;;;4.50;99.90;;;;;;5074219;28;20215;-67
2021/01/01 05:26:13;;;;;;;51.20;28.30;;;4.50;99.90;;;;;;5074827;28;20206;-67
2021/01/01 05:28:48;;;;;;;52.63;29.08;;;4.30;1.00;;;;;;5074022;28;20271;-67
2021/01/01 05:31:15;;;;;;;57.75;30.92;;;4.20;1.00;;;;;;5074062;28;20199;-67
2021/01/01 05:33:43;;;;;;;48.80;28.92;;;4.10;99.60;;;;;;5073978;28;20208;-67
2021/01/01 05:36:09;;;;;;;55.30;31.27;;;4.10;1.00;;;;;;5074431;28;20207;-67
2021/01/01 05:38:38;;;;;;;58.90;31.95;;;4.10;99.90;;;;;;5073870;28;20192;-67
2021/01/01 05:41:04;;;;;;;53.55;31.15;;;4.10;1.00;;;;;;5073876;28;20575;-67
2021/01/01 05:43:29;;;;;;;58.03;32.58;;;4.30;99.90;;;;;;5073821;28;20602;-67
2021/01/01 05:46:07;;;;;;;61.37;34.53;;;4.10;1.00;;;;;;5073788;28;20200;-67
2021/01/01 05:48:33;;;;;;;57.50;33.33;;;4.10;99.90;;;;;;5073591;28;20259;-66
2021/01/01 05:51:07;;;;;;;59.13;32.57;;;4.10;99.90;;;;;;5073827;28;20215;-67
2021/01/01 05:53:33;;;;;;;66.43;32.50;;;4.10;1.00;;;;;;5073888;28;20237;-67
2021/01/01 05:56:09;;;;;;;56.37;32.63;;;4.10;32.70;;;;;;5073295;28;20342;-67
2021/01/01 05:58:36;;;;;;;60.95;36.13;;;4.10;1.00;;;;;;5073406;28;20429;-66
2021/01/01 06:01:02;;;;;;;59.38;35.05;;;4.10;99.90;;;;;;5073583;28;20560;-67
2021/01/01 06:03:33;;;;;;;59.97;33.88;;;4.10;99.90;;;;;;5073708;28;20195;-67
2021/01/01 06:06:04;;;;;;;59.95;33.45;;;4.10;68.20;;;;;;5073546;28;20145;-67
2021/01/01 06:08:30;;;;;;;56.67;32.45;;;4.00;99.90;;;;;;5073401;28;20248;-67
2021/01/01 06:11:00;;;;;;;60.63;33.80;;;4.10;7.50;;;;;;5073335;28;20179;-67
2021/01/01 06:13:34;;;;;;;59.53;33.30;;;4.00;1.00;;;;;;5073525;28;20195;-67
2021/01/01 06:16:02;;;;;;;58.47;33.60;;;4.30;68.50;;;;;;5073445;28;20149;-67
2021/01/01 06:18:33;;;;;;;56.35;31.13;;;4.50;1.00;;;;;;5073160;28;20184;-67
2021/01/01 06:20:58;;;;;;;58.08;34.80;;;4.60;1.00;;;;;;5073476;28;20165;-67
2021/01/01 06:23:32;;;;;;;58.47;32.20;;;4.10;99.90;;;;;;5073172;28;20603;-65
2021/01/01 06:25:59;;;;;;;63.60;34.97;;;4.10;99.90;;;;;;5073440;28;20513;-67
2021/01/01 06:28:26;;;;;;;56.15;32.97;;;4.20;1.00;;;;;;5072994;28;20218;-67
2021/01/01 06:30:55;;;;;;;67.00;32.75;;;4.40;1.00;;;;;;5073041;28;20164;-67
2021/01/01 06:33:22;;;;;;;58.13;32.17;;;4.50;99.90;;;;;;5073025;28;20188;-67
2021/01/01 06:35:48;;;;;;;49.55;32.08;;;4.40;99.90;;;;;;5073042;28;20176;-67
2021/01/01 06:38:42;;;;;;;52.87;31.27;;;4.40;17.50;;;;;;5071680;28;20538;-67
2021/01/01 06:41:31;;;;;;;46.83;29.50;;;4.40;1.00;;;;;;5073017;28;20503;-67
2021/01/01 06:43:57;;;;;;;52.75;29.92;;;4.20;1.00;;;;;;5072779;28;20168;-66
2021/01/01 06:46:33;;;;;;;54.77;30.23;;;4.50;99.90;;;;;;5072998;28;20165;-67
2021/01/01 06:48:59;;;;;;;43.17;26.95;;;4.10;99.90;;;;;;5072834;28;20730;-67
2021/01/01 06:51:28;;;;;;;50.65;29.98;;;4.00;74.00;;;;;;5073147;28;20529;-67
2021/01/01 06:53:55;;;;;;;48.03;29.33;;;4.30;1.00;;;;;;5072889;28;20540;-67
2021/01/01 06:56:21;;;;;;;46.88;28.42;;;4.60;99.90;;;;;;5073087;28;20160;-67
2021/01/01 06:58:47;;;;;;;53.63;29.30;;;4.50;1.00;;;;;;5072700;28;20176;-67
2021/01/01 07:01:16;;;;;;;44.23;27.27;;;4.80;1.00;;;;;;5072848;28;20487;-67
2021/01/01 07:03:42;;;;;;;46.85;27.17;;;4.60;1.00;;;;;;5072699;28;20171;-67
2021/01/01 07:06:07;;;;;;;40.80;25.97;;;4.60;1.00;;;;;;5072748;28;20221;-67
2021/01/01 07:08:42;;;;;;;45.97;25.80;;;4.60;1.00;;;;;;5074742;28;21498;-67
2021/01/01 07:11:07;;;;;;;47.38;27.50;;;4.40;1.00;;;;;;5077091;28;20199;-67
2021/01/01 07:13:40;;;;;;;48.87;29.00;;;4.20;1.00;;;;;;5077269;28;20230;-67
2021/01/01 07:16:05;;;;;;;49.08;27.15;;;4.20;99.90;;;;;;5076760;28;20160;-67
2021/01/01 07:18:31;;;;;;;45.97;24.77;;;4.10;99.90;;;;;;5076538;28;20225;-66
2021/01/01 07:21:04;;;;;;;45.47;27.57;;;4.10;99.90;;;;;;5076895;28;20524;-67
2021/01/01 07:23:30;;;;;;;48.55;26.90;;;4.10;99.90;;;;;;5076555;28;20283;-67
2021/01/01 07:25:56;;;;;;;44.83;26.80;;;3.90;99.90;;;;;;5076465;28;20210;-67
2021/01/01 07:28:23;;;;;;;45.13;26.90;;;3.90;1.00;;;;;;5076350;28;20172;-67
2021/01/01 07:30:49;;;;;;;42.83;24.88;;;3.90;1.00;;;;;;5076390;28;20180;-67
2021/01/01 07:33:22;;;;;;;44.67;25.23;;;4.00;1.00;;;;;;5076228;28;20299;-67
2021/01/01 07:35:52;;;;;;;39.38;24.98;;;3.90;1.00;;;;;;5076610;28;20168;-67
2021/01/01 07:38:22;;;;;;;43.67;23.52;;;4.10;99.90;;;;;;5076198;28;20634;-66
2021/01/01 07:40:49;;;;;;;45.22;24.42;;;4.00;99.90;;;;;;5076211;28;20275;-67
2021/01/01 07:43:15;;;;;;;46.13;25.15;;;4.10;99.90;;;;;;5076171;28;20254;-67
2021/01/01 07:45:41;;;;;;;43.60;24.50;;;3.90;99.90;;;;;;5076181;28;20196;-69
2021/01/01 07:48:07;;;;;;;42.93;24.30;;;4.10;99.90;;;;;;5075995;28;20377;-68
2021/01/01 07:50:34;;;;;;;36.72;23.48;;;4.30;99.90;;;;;;5076206;28;20921;-66
2021/01/01 07:53:04;;;;;;;36.63;23.83;;;4.40;1.00;;;;;;5075945;28;20644;-66
2021/01/01 07:55:30;;;;;;;41.45;24.83;;;4.60;1.00;;;;;;5075953;28;20180;-66
2021/01/01 07:58:09;;;;;;;44.75;25.50;;;4.60;1.00;;;;;;5075887;28;20165;-67
2021/01/01 08:00:37;;;;;;;43.88;24.90;;;4.60;1.00;;;;;;5075927;28;20195;-67
2021/01/01 08:03:04;;;;;;;40.75;24.38;;;4.60;1.00;;;;;;5075791;28;20644;-67
2021/01/01 08:05:30;;;;;;;42.53;23.75;;;4.20;1.00;;;;;;5075996;28;20176;-66
2021/01/01 08:08:20;;;;;;;44.20;26.40;;;4.10;15.20;;;;;;5075735;28;20194;-67
2021/01/01 08:10:47;;;;;;;44.65;25.67;;;4.10;99.90;;;;;;5076007;28;20235;-67
2021/01/01 08:13:24;;;;;;;39.95;23.73;;;4.00;1.00;;;;;;5075823;28;20205;-66
2021/01/01 08:15:51;;;;;;;42.40;24.90;;;4.10;99.90;;;;;;5075631;28;20168;-67
2021/01/01 08:18:20;;;;;;;44.63;25.33;;;4.10;96.90;;;;;;5075475;28;20171;-67
2021/01/01 08:20:46;;;;;;;36.55;25.00;;;4.50;1.00;;;;;;5075639;28;20165;-67
2021/01/01 08:23:15;;;;;;;41.85;25.90;;;4.30;99.90;;;;;;5075481;28;20172;-66
2021/01/01 08:25:42;;;;;;;46.97;25.52;;;4.10;99.90;;;;;;5075392;28;20170;-68
2021/01/01 08:28:08;;;;;;;48.53;28.13;;;4.00;1.00;;;;;;5074097;28;20173;-67
2021/01/01 08:30:36;;;;;;;41.20;27.02;;;4.00;1.00;;;;;;5075285;28;20184;-67
2021/01/01 08:33:06;;;;;;;46.13;26.63;;;4.00;16.70;;;;;;5075478;28;20696;-66
2021/01/01 08:35:32;;;;;;;43.55;26.70;;;4.10;1.00;;;;;;5075408;28;20238;-67
2021/01/01 08:37:58;;;;;;;48.03;28.63;;;4.30;49.40;;;;;;5075507;28;20170;-67
2021/01/01 08:40:23;;;;;;;38.30;26.00;;;4.60;1.00;;;;;;5075110;28;20263;-68
2021/01/01 08:42:55;;;;;;;39.53;24.27;;;4.40;37.90;;;;;;5075160;28;20179;-67
2021/01/01 08:45:30;;;;;;;45.30;25.50;;;4.70;1.00;;;;;;5075088;28;20211;-66
2021/01/01 08:47:55;;;;;;;40.05;24.45;;;4.40;1.00;;;;;;5075121;28;20171;-67
2021/01/01 08:50:21;;;;;;;40.40;23.87;;;4.20;47.50;;;;;;5074855;28;20223;-67
2021/01/01 08:52:48;;;;;;;40.83;23.07;;;4.20;99.90;;;;;;5074815;28;20276;-67
2021/01/01 08:55:14;;;;;;;38.33;23.90;;;4.10;99.90;;;;;;5074902;28;20175;-67
2021/01/01 08:57:40;;;;;;;42.60;24.10;;;4.00;99.90;;;;;;5074860;28;20157;-66
2021/01/01 09:00:07;;;;;;;47.20;24.80;;;4.10;1.00;;;;;;5074936;28;20954;-67
2021/01/01 09:02:33;;;;;;;40.30;25.20;;;4.00;99.90;;;;;;5074705;28;20768;-67
2021/01/01 09:05:00;;;;;;;36.35;25.05;;;4.10;1.00;;;;;;5074726;28;20168;-67
2021/01/01 09:07:26;;;;;;;45.78;25.05;;;4.10;99.90;;;;;;5075027;28;20172;-67
2021/01/01 09:09:52;;;;;;;41.87;26.10;;;4.10;99.90;;;;;;5074823;28;20687;-67
2021/01/01 09:12:22;;;;;;;48.13;26.70;;;4.10;1.00;;;;;;5074562;28;20442;-67
2021/01/01 09:14:55;;;;;;;42.65;26.95;;;4.20;99.90;;;;;;5074504;28;20640;-67
2021/01/01 09:17:25;;;;;;;41.85;25.55;;;4.30;99.90;;;;;;5074416;28;20160;-67
2021/01/01 09:20:05;;;;;;;48.28;26.92;;;4.20;1.00;;;;;;5074306;28;20271;-66
2021/01/01 09:22:36;;;;;;;43.95;25.45;;;4.20;93.90;;;;;;5074888;28;20152;-68
2021/01/01 09:25:20;;;;;;;42.63;26.40;;;4.20;1.00;;;;;;5074715;28;20209;-67
2021/01/01 09:27:46;;;;;;;42.25;27.55;;;4.20;99.90;;;;;;5074445;28;20179;-67
2021/01/01 09:30:15;;;;;;;42.75;27.35;;;4.30;99.90;;;;;;5074208;28;20538;-69
2021/01/01 09:32:45;;;;;;;45.92;26.60;;;4.30;99.90;;;;;;5074102;28;20196;-68
2021/01/01 09:35:12;;;;;;;51.33;26.83;;;4.20;65.70;;;;;;5074092;28;20163;-68
2021/01/01 09:37:37;;;;;;;48.28;27.48;;;4.20;99.90;;;;;;5074267;28;20182;-68
2021/01/01 09:40:03;;;;;;;49.63;29.90;;;4.60;99.90;;;;;;5073813;28;20187;-67
2021/01/01 09:42:29;;;;;;;49.22;29.02;;;4.90;1.00;;;;;;5073922;28;20583;-68
2021/01/01 09:44:54;;;;;;;49.30;29.90;;;5.20;99.90;;;;;;5074067;28;20172;-68
2021/01/01 09:47:20;;;;;;;48.37;27.97;;;5.00;99.90;;;;;;5073788;28;20176;-68
2021/01/01 09:49:45;;;;;;;44.03;28.40;;;5.00;99.90;;;;;;5073633;28;20253;-68
2021/01/01 09:52:11;;;;;;;45.60;28.53;;;5.00;99.90;;;;;;5073666;28;20341;-68
2021/01/01 09:54:36;;;;;;;50.53;30.10;;;4.50;99.90;;;;;;5073724;28;20168;-68
2021/01/01 09:57:02;;;;;;;44.87;28.27;;;4.40;99.90;;;;;;5073716;28;20644;-67
2021/01/01 09:59:28;;;;;;;44.00;29.20;;;4.40;1.00;;;;;;5073768;28;20234;-67
2021/01/01 10:01:53;;;;;;;44.60;27.93;;;4.70;99.90;;;;;;5073855;28;20179;-67
2021/01/01 10:04:19;;;;;;;51.20;28.93;;;4.80;99.90;;;;;;5073780;28;20182;-68
2021/01/01 10:06:49;;;;;;;50.23;30.00;;;4.70;99.90;;;;;;5073941;28;20203;-68
2021/01/01 10:09:14;;;;;;;49.30;28.38;;;4.80;99.90;;;;;;5074098;28;20734;-66
2021/01/01 10:11:40;;;;;;;54.50;28.40;;;5.10;99.90;;;;;;5073777;28;20172;-67
2021/01/01 10:14:05;;;;;;;46.47;28.33;;;5.10;99.90;;;;;;5073534;28;20217;-67
2021/01/01 10:16:32;;;;;;;49.20;29.00;;;4.90;99.90;;;;;;5073320;28;20168;-68
2021/01/01 10:18:57;;;;;;;49.35;28.65;;;5.10;99.90;;;;;;5073562;28;20196;-68
2021/01/01 10:21:23;;;;;;;53.37;33.30;;;5.00;99.90;;;;;;5073506;28;20176;-67
2021/01/01 10:23:48;;;;;;;60.50;33.63;;;4.70;99.90;;;;;;5073282;28;20570;-67
2021/01/01 10:26:14;;;;;;;66.67;34.23;;;4.70;99.90;;;;;;5073377;28;20175;-67
2021/01/01 10:28:39;;;;;;;61.30;32.73;;;4.90;99.90;;;;;;5073313;28;20180;-67
2021/01/01 10:31:05;;;;;;;63.03;34.20;;;5.10;99.90;;;;;;5073160;28;20265;-69
2021/01/01 10:33:30;;;;;;;59.97;32.67;;;4.90;99.90;;;;;;5073464;28;20692;-67
2021/01/01 10:35:56;;;;;;;64.13;33.93;;;4.90;99.90;;;;;;5073120;28;20655;-67
2021/01/01 10:38:21;;;;;;;63.13;34.07;;;5.40;99.90;;;;;;5073262;28;20164;-67
2021/01/01 10:40:47;;;;;;;65.47;36.83;;;5.20;99.90;;;;;;5073036;28;20672;-67
2021/01/01 10:43:13;;;;;;;58.40;35.43;;;5.60;99.90;;;;;;5071974;28;20192;-68
2021/01/01 10:45:38;;;;;;;72.33;35.00;;;5.50;99.90;;;;;;5073078;28;20172;-67
2021/01/01 10:48:04;;;;;;;62.87;35.27;;;5.40;99.90;;;;;;5072774;28;20290;-68
2021/01/01 10:50:30;;;;;;;53.03;32.90;;;5.00;99.90;;;;;;5073065;28;20196;-68
2021/01/01 10:52:55;;;;;;;57.60;35.20;;;4.70;99.90;;;;;;5073150;28;20241;-68
2021/01/01 10:55:21;;;;;;;57.00;32.83;;;4.70;99.90;;;;;;5072936;28;20667;-68
2021/01/01 10:57:47;;;;;;;60.03;33.03;;;4.80;99.90;;;;;;5072993;28;20167;-68
2021/01/01 11:00:13;;;;;;;67.33;34.87;;;4.90;99.90;;;;;;5072827;28;20190;-68
2021/01/01 11:02:38;;;;;;;59.03;33.45;;;5.50;99.90;;;;;;5072820;28;20199;-68
2021/01/01 11:05:04;;;;;;;56.77;33.80;;;5.40;99.90;;;;;;5072945;28;20253;-68
2021/01/01 11:07:30;;;;;;;56.95;33.65;;;5.50;99.90;;;;;;5072980;28;20214;-68
2021/01/01 11:09:56;;;;;;;58.53;35.38;;;5.40;99.90;;;;;;5072857;28;20560;-68
2021/01/01 11:12:21;;;;;;;61.00;36.10;;;5.50;99.90;;;;;;5072859;28;20187;-68
2021/01/01 12:26:30;;;;;;;53.75;29.77;;;6.80;1.00;;;;;;5075814;28;20690;-67
2021/01/01 12:28:56;;;;;;;43.57;26.97;;;7.40;1.00;;;;;;5075880;28;20199;-67
2021/01/01 12:31:23;;;;;;;47.63;29.45;;;7.20;1.00;;;;;;5075516;28;20540;-68
2021/01/01 12:33:49;;;;;;;48.88;29.35;;;7.50;1.00;;;;;;5075393;28;20203;-68
2021/01/01 12:36:14;;;;;;;45.70;28.60;;;7.50;1.00;;;;;;5075751;28;20157;-67
2021/01/01 12:38:40;;;;;;;44.80;28.13;;;7.40;1.00;;;;;;5073852;28;20270;-68
2021/01/01 12:41:06;;;;;;;46.33;27.70;;;7.90;1.00;;;;;;5075176;28;20167;-69
2021/01/01 12:43:31;;;;;;;53.23;31.40;;;7.90;1.00;;;;;;5075354;28;20206;-68
2021/01/01 12:45:57;;;;;;;50.90;30.23;;;7.80;1.00;;;;;;5075454;28;20196;-68
2021/01/01 12:48:22;;;;;;;44.63;27.33;;;7.80;1.00;;;;;;5074703;28;20184;-68
2021/01/01 12:50:48;;;;;;;41.30;26.23;;;8.20;1.00;;;;;;5075317;28;20169;-68
2021/01/01 12:53:13;;;;;;;46.30;27.87;;;7.40;1.00;;;;;;5074788;28;20679;-69
2021/01/01 12:55:39;;;;;;;42.70;27.30;;;6.80;1.00;;;;;;5074889;28;20191;-69
2021/01/01 12:58:05;;;;;;;42.73;26.83;;;7.20;1.00;;;;;;5074882;28;20578;-67
2021/01/01 13:00:30;;;;;;;40.87;25.60;;;8.00;1.00;;;;;;5074542;28;20827;-67
2021/01/01 13:02:56;;;;;;;41.83;24.30;;;8.20;1.00;;;;;;5073362;28;20176;-68
2021/01/01 13:05:22;;;;;;;33.63;22.10;;;8.40;1.00;;;;;;5073770;28;20179;-67
2021/01/01 13:07:47;;;;;;;33.70;21.10;;;8.10;1.00;;;;;;5075011;28;20180;-67
2021/01/01 13:10:13;;;;;;;37.03;24.10;;;8.60;1.00;;;;;;5074744;28;20188;-67
2021/01/01 13:12:39;;;;;;;45.37;26.53;;;8.60;1.00;;;;;;5074990;28;20333;-67
2021/01/01 13:15:05;;;;;;;46.57;27.90;;;8.50;1.00;;;;;;5074605;28;20160;-67
2021/01/01 13:17:32;;;;;;;46.80;29.70;;;8.70;1.00;;;;;;5074359;28;20979;-67
2021/01/01 13:19:58;;;;;;;46.87;30.60;;;8.90;1.00;;;;;;5074336;28;20919;-67
2021/01/01 13:22:23;;;;;;;57.20;30.40;;;8.50;1.00;;;;;;5074290;28;20416;-67
2021/01/01 13:24:49;;;;;;;48.10;30.23;;;7.90;1.00;;;;;;5074441;28;20250;-67
2021/01/01 13:27:15;;;;;;;49.90;30.93;;;8.10;1.00;;;;;;5074169;28;20179;-67
2021/01/01 13:29:41;;;;;;;48.33;31.90;;;7.90;1.00;;;;;;5074138;28;20561;-67
2021/01/01 13:32:06;;;;;;;46.40;30.37;;;8.30;1.00;;;;;;5073984;28;20192;-67
2021/01/01 13:34:32;;;;;;;57.47;32.97;;;8.40;1.00;;;;;;5074288;28;20167;-67
2021/01/01 13:36:57;;;;;;;48.40;30.90;;;7.80;1.00;;;;;;5074145;28;20176;-67
2021/01/01 13:39:24;;;;;;;46.10;31.77;;;7.80;1.00;;;;;;5074083;28;20218;-69
2021/01/01 13:41:51;;;;;;;49.83;30.05;;;7.30;1.00;;;;;;5073797;28;20176;-67
2021/01/01 13:44:17;;;;;;;54.13;32.70;;;6.90;1.00;;;;;;5074177;28;20168;-68
2021/01/01 13:46:42;;;;;;;48.03;30.67;;;6.90;1.00;;;;;;5073734;28;20180;-67
2021/01/01 13:49:08;;;;;;;47.63;30.03;;;7.00;1.00;;;;;;5073734;28;20213;-69
2021/01/01 13:51:37;;;;;;;45.03;29.47;;;6.60;1.00;;;;;;5074039;28;20256;-68
2021/01/01 13:54:04;;;;;;;47.20;27.88;;;6.30;1.00;;;;;;5073665;28;20202;-70
2021/01/01 13:56:29;;;;;;;49.78;30.15;;;6.70;1.00;;;;;;5073472;28;20214;-68